Altona, IL (61414)

11:32 AM CST on February 11, 2016 (GMT -0600)
Lundeen Farms | | Change Station
CLOSE
Current Station
Personal Weather Station
Location: Altona, IL
Elevation: 755 ft
Nearby Weather Stations

Elev 755 ft 41.13 °N, 90.18 °W | Updated 8 minutes ago

Clear
Clear
26.8 °F
Feels Like 27 °F
N
2.7
Wind Variable Wind from WSW

Today
High -- | Low -- °F
--% Chance of Precip.
Yesterday
High -- | Low -- °F
Precip. -- in
Pressure 30.36 in
Visibility 10.0 miles
Clouds Clear
Windchill 27 °F
Dew Point 6 °F
Humidity 41%
Rainfall 0.00 in
Snow Depth Not available.
7:00 AM 5:29 PM
Waxing Crescent, 13% visible
METAR KGBG 111715Z AUTO 34003KT 10SM CLR M08/M16 A3036 RMK AO2 T10761158
Pressure 30.36 in
Visibility 10.0 miles
Clouds Clear
Windchill 27 °F
Dew Point 6 °F
Humidity 41%
Rainfall 0.00 in
Snow Depth Not available.
7:00 AM 5:29 PM
Waxing Crescent, 13% visible
METAR KGBG 111715Z AUTO 34003KT 10SM CLR M08/M16 A3036 RMK AO2 T10761158

10-Day Weather Forecast

Almanac

Astronomy

Feb. 11, 2016 Rise Set
Actual Time
Civil Twilight
Nautical Twilight
Astronomical Twilight
Moon
Length of Visible Light
Length of Day
Tomorrow will be .
, % of the Moon is Illuminated

Today's Extremes

State Highs State Lows

Community

WunderPhotos

Upload Photos

1,892,109 photos uploaded!

WunderBlog® & News

Nearby

Air Quality

  Air Quality AQ Index Pollutant
Not available.

Snow Depth

Station Depth Elevation

Earthquake Activity

City Distance Mag. Time & Date
Minimum magnitude displayed is 2.5.

Coastal Water Temperatures

Place Temperature

Stations

Nearby Weather Stations

Station Location Temp. Windchill Dew Point Humidity Wind Precip. Elev Updated Type
                   

Watches & Warnings

There are currently no watches in effect.